createdAt,value
2018-12-29T00:00:04.457Z,11.70
2018-12-29T00:01:04.448Z,13.30
2018-12-29T00:02:04.434Z,12.30
2018-12-29T00:03:04.436Z,10.40
2018-12-29T00:04:06.039Z,12.00
2018-12-29T00:05:04.424Z,12.10
2018-12-29T00:06:04.391Z,15.00
2018-12-29T00:07:05.895Z,11.20
2018-12-29T00:08:05.048Z,9.30
2018-12-29T00:09:04.371Z,12.20
2018-12-29T00:10:04.347Z,12.50
2018-12-29T00:11:04.338Z,13.00
2018-12-29T00:12:04.325Z,13.00
2018-12-29T00:13:04.322Z,12.40
2018-12-29T00:14:04.317Z,11.30
2018-12-29T00:15:04.292Z,11.20
2018-12-29T00:16:04.284Z,10.50
2018-12-29T00:17:04.279Z,13.10
2018-12-29T00:18:04.263Z,13.10
2018-12-29T00:19:04.289Z,12.90
2018-12-29T00:20:04.240Z,11.70
2018-12-29T00:21:04.239Z,11.50
2018-12-29T00:22:04.225Z,14.00
2018-12-29T00:23:04.219Z,13.00
2018-12-29T00:24:04.245Z,13.90
2018-12-29T00:25:04.198Z,14.10
2018-12-29T00:26:04.176Z,12.00
2018-12-29T00:27:04.165Z,14.90
2018-12-29T00:28:04.154Z,12.60
2018-12-29T00:29:04.148Z,13.20
2018-12-29T00:30:04.147Z,11.10
2018-12-29T00:31:04.123Z,13.70
2018-12-29T00:32:04.109Z,12.40
2018-12-29T00:33:04.099Z,12.30
2018-12-29T00:34:04.096Z,12.30
2018-12-29T00:35:04.089Z,15.40
2018-12-29T00:36:04.067Z,14.40
2018-12-29T00:37:04.055Z,12.40
2018-12-29T00:38:04.049Z,9.30
2018-12-29T00:39:04.037Z,11.80
2018-12-29T00:40:04.039Z,13.10
2018-12-29T00:41:04.014Z,13.20
2018-12-29T00:42:04.001Z,11.80
2018-12-29T00:43:03.989Z,13.40
2018-12-29T00:44:03.982Z,11.60
2018-12-29T00:45:03.980Z,12.90
2018-12-29T00:46:03.958Z,12.10
2018-12-29T00:47:03.954Z,12.50
2018-12-29T00:48:03.936Z,14.70
2018-12-29T00:49:03.925Z,12.90
2018-12-29T00:50:03.913Z,13.90
2018-12-29T00:51:03.917Z,10.60
2018-12-29T00:52:03.897Z,14.00
2018-12-29T00:53:03.884Z,15.30
2018-12-29T00:54:03.874Z,12.70
2018-12-29T00:55:03.862Z,14.20
2018-12-29T00:56:03.927Z,12.10
2018-12-29T00:57:03.856Z,13.90
2018-12-29T00:58:03.871Z,13.10
2018-12-29T00:59:03.816Z,11.70
2018-12-29T01:00:03.806Z,13.50
2018-12-29T01:01:03.808Z,13.20
2018-12-29T01:02:03.844Z,9.60
2018-12-29T01:03:03.787Z,13.00
2018-12-29T01:04:03.765Z,13.20
2018-12-29T01:05:03.757Z,12.00
2018-12-29T01:06:03.755Z,11.20
2018-12-29T01:07:03.785Z,12.10
2018-12-29T01:08:03.721Z,12.30
2018-12-29T01:09:03.713Z,13.10
2018-12-29T01:10:03.699Z,13.60
2018-12-29T01:11:03.704Z,13.90
2018-12-29T01:12:03.678Z,13.30
2018-12-29T01:13:03.667Z,14.10
2018-12-29T01:14:03.659Z,11.50
2018-12-29T01:15:09.965Z,13.10
2018-12-29T01:16:04.643Z,14.40
2018-12-29T01:17:03.624Z,12.80
2018-12-29T01:18:03.616Z,14.70
2018-12-29T01:19:03.601Z,13.90
2018-12-29T01:20:03.595Z,15.80
2018-12-29T01:21:03.580Z,13.00
2018-12-29T01:22:03.584Z,13.80
2018-12-29T01:23:03.560Z,13.50
2018-12-29T01:24:03.549Z,11.60
2018-12-29T01:25:03.541Z,14.80
2018-12-29T01:26:03.539Z,13.90
2018-12-29T01:27:03.535Z,12.40
2018-12-29T01:28:03.507Z,13.70
2018-12-29T01:29:03.494Z,13.70
2018-12-29T01:30:03.492Z,12.90
2018-12-29T01:31:03.480Z,12.50
2018-12-29T01:32:03.482Z,12.60
2018-12-29T01:33:03.467Z,15.60
2018-12-29T01:34:03.442Z,11.40
2018-12-29T01:35:03.431Z,14.40
2018-12-29T01:36:03.420Z,14.40
2018-12-29T01:37:03.420Z,14.80
2018-12-29T01:38:03.399Z,14.90
2018-12-29T01:39:03.398Z,13.20
2018-12-29T01:40:03.377Z,14.80
2018-12-29T01:41:03.366Z,14.20
2018-12-29T01:42:03.374Z,15.90
2018-12-29T01:43:03.348Z,17.20
2018-12-29T01:44:03.334Z,13.30
2018-12-29T01:45:03.321Z,13.20
2018-12-29T01:46:03.313Z,14.60
2018-12-29T01:47:03.316Z,16.30
2018-12-29T01:48:03.295Z,15.40
2018-12-29T01:49:03.284Z,13.50
2018-12-29T01:50:03.270Z,12.80
2018-12-29T01:51:03.263Z,14.50
2018-12-29T01:52:03.260Z,14.70
2018-12-29T01:53:03.244Z,14.50
2018-12-29T01:54:03.229Z,21.20
2018-12-29T01:55:03.229Z,14.80
2018-12-29T01:56:03.207Z,14.90
2018-12-29T01:57:03.392Z,14.70
2018-12-29T01:58:03.989Z,12.90
2018-12-29T01:59:03.171Z,15.60
2018-12-29T02:00:03.164Z,15.20
2018-12-29T02:01:03.152Z,17.10
2018-12-29T02:02:03.150Z,18.40
2018-12-29T02:03:03.142Z,14.60
2018-12-29T02:04:03.120Z,14.30
2018-12-29T02:05:03.113Z,17.10
2018-12-29T02:06:03.105Z,17.20
2018-12-29T02:07:03.506Z,16.30
2018-12-29T02:08:03.092Z,18.00
2018-12-29T02:09:03.063Z,17.80
2018-12-29T02:10:03.055Z,18.10
2018-12-29T02:11:03.048Z,17.10
2018-12-29T02:12:03.036Z,18.20
2018-12-29T02:13:03.055Z,15.70
2018-12-29T02:14:03.010Z,18.10
2018-12-29T02:15:03.000Z,17.40
2018-12-29T02:16:02.998Z,14.70
2018-12-29T02:17:02.983Z,16.50
2018-12-29T02:18:02.978Z,14.90
2018-12-29T02:19:02.966Z,18.00
2018-12-29T02:20:02.946Z,15.20
2018-12-29T02:21:02.938Z,18.70
2018-12-29T02:22:02.924Z,20.90
2018-12-29T02:23:02.914Z,15.80
2018-12-29T02:24:02.919Z,17.50
2018-12-29T02:25:02.894Z,15.90
2018-12-29T02:26:02.880Z,16.10
2018-12-29T02:27:02.872Z,15.80
2018-12-29T02:28:02.863Z,19.20
2018-12-29T02:29:02.862Z,20.20
2018-12-29T02:30:02.884Z,21.00
2018-12-29T02:31:02.827Z,14.40
2018-12-29T02:32:02.817Z,20.10
2018-12-29T02:33:02.805Z,16.80
2018-12-29T02:34:02.805Z,17.50
2018-12-29T02:35:02.794Z,17.30
2018-12-29T02:36:02.773Z,17.90
2018-12-29T02:37:02.768Z,17.00
2018-12-29T02:38:02.755Z,14.50
2018-12-29T02:39:02.753Z,17.00
2018-12-29T02:40:02.731Z,17.50
2018-12-29T02:41:02.732Z,18.40
2018-12-29T02:42:02.709Z,15.20
2018-12-29T02:43:02.703Z,16.30
2018-12-29T02:44:02.711Z,17.30
2018-12-29T02:45:02.679Z,17.60
2018-12-29T02:46:02.664Z,19.00
2018-12-29T02:47:02.659Z,18.30
2018-12-29T02:48:02.686Z,17.30
2018-12-29T02:49:02.650Z,15.60
2018-12-29T02:50:02.623Z,18.80
2018-12-29T02:51:02.635Z,17.70
2018-12-29T02:52:02.607Z,18.80
2018-12-29T02:53:02.591Z,18.40
2018-12-29T02:54:02.605Z,15.80
2018-12-29T02:55:02.570Z,18.70
2018-12-29T02:56:02.571Z,20.10
2018-12-29T02:57:02.547Z,16.90
2018-12-29T02:58:02.547Z,14.60
2018-12-29T02:59:02.550Z,16.30
2018-12-29T03:00:02.518Z,19.80
2018-12-29T03:01:02.503Z,17.60
2018-12-29T03:02:02.500Z,13.90
2018-12-29T03:03:02.484Z,17.50
2018-12-29T03:04:02.485Z,18.80
2018-12-29T03:05:02.468Z,14.80
2018-12-29T03:06:02.451Z,15.50
2018-12-29T03:07:02.444Z,18.20
2018-12-29T03:08:02.433Z,17.70
2018-12-29T03:09:02.524Z,14.50
2018-12-29T03:10:02.424Z,15.30
2018-12-29T03:11:02.397Z,13.20
2018-12-29T03:12:02.388Z,13.50
2018-12-29T03:13:02.378Z,15.30
2018-12-29T03:14:02.367Z,17.50
2018-12-29T03:15:02.367Z,16.70
2018-12-29T03:16:02.350Z,15.40
2018-12-29T03:17:02.337Z,16.60
2018-12-29T03:18:02.325Z,16.30
2018-12-29T03:19:02.311Z,14.50
2018-12-29T03:20:02.321Z,14.20
2018-12-29T03:21:02.293Z,17.30
2018-12-29T03:22:02.288Z,15.00
2018-12-29T03:23:02.269Z,16.90
2018-12-29T03:24:02.261Z,14.90
2018-12-29T03:25:02.260Z,16.80
2018-12-29T03:26:02.240Z,15.30
2018-12-29T03:27:02.232Z,14.70
2018-12-29T03:28:02.217Z,16.30
2018-12-29T03:29:02.207Z,15.30
2018-12-29T03:30:02.211Z,14.60
2018-12-29T03:31:02.187Z,15.20
2018-12-29T03:32:02.179Z,14.10
2018-12-29T03:33:02.172Z,16.80
2018-12-29T03:34:02.153Z,14.30
2018-12-29T03:35:02.160Z,13.60
2018-12-29T03:36:02.139Z,17.00
2018-12-29T03:37:02.118Z,16.30
2018-12-29T03:38:02.111Z,14.30
2018-12-29T03:39:02.097Z,15.60
2018-12-29T03:40:02.101Z,14.80
2018-12-29T03:41:02.078Z,17.60
2018-12-29T03:42:02.068Z,13.60
2018-12-29T03:43:02.056Z,15.70
2018-12-29T03:44:02.056Z,17.10
2018-12-29T03:45:02.048Z,17.70
2018-12-29T03:46:02.026Z,16.10
2018-12-29T03:47:02.010Z,15.90
2018-12-29T03:48:02.006Z,15.80
2018-12-29T03:49:01.991Z,17.00
2018-12-29T03:50:02.011Z,18.50
2018-12-29T03:51:11.567Z,14.60
2018-12-29T03:52:01.963Z,16.90
2018-12-29T03:53:01.949Z,16.30
2018-12-29T03:54:01.937Z,16.00
2018-12-29T03:55:01.929Z,15.50
2018-12-29T03:56:01.973Z,16.90
2018-12-29T03:57:01.907Z,15.40
2018-12-29T03:58:01.893Z,24.10
2018-12-29T03:59:01.889Z,17.70
2018-12-29T04:00:01.955Z,16.30
2018-12-29T04:01:01.879Z,15.30
2018-12-29T04:02:01.856Z,14.70
2018-12-29T04:03:01.941Z,18.00
2018-12-29T04:04:01.949Z,15.70
2018-12-29T04:05:01.824Z,13.00
2018-12-29T04:06:01.822Z,19.40
2018-12-29T04:07:01.798Z,14.80
2018-12-29T04:08:01.792Z,16.70
2018-12-29T04:09:01.780Z,17.60
2018-12-29T04:10:01.771Z,15.40
2018-12-29T04:11:01.769Z,15.90
2018-12-29T04:12:01.755Z,17.80
2018-12-29T04:13:01.734Z,17.20
2018-12-29T04:14:01.722Z,15.90
2018-12-29T04:15:01.713Z,17.20
2018-12-29T04:16:01.712Z,13.80
2018-12-29T04:17:01.695Z,13.00
2018-12-29T04:18:01.684Z,16.70
2018-12-29T04:19:01.672Z,15.30
2018-12-29T04:20:01.662Z,17.50
2018-12-29T04:21:01.653Z,19.80
2018-12-29T04:22:01.649Z,16.60
2018-12-29T04:23:01.625Z,14.20
2018-12-29T04:24:01.621Z,14.00
2018-12-29T04:25:01.612Z,15.00
2018-12-29T04:26:01.595Z,17.10
2018-12-29T04:27:01.606Z,19.30
2018-12-29T04:28:01.574Z,17.50
2018-12-29T04:29:01.612Z,15.00
2018-12-29T04:30:01.553Z,16.90
2018-12-29T04:31:01.548Z,18.70
2018-12-29T04:32:01.550Z,17.20
2018-12-29T04:33:01.522Z,15.10
2018-12-29T04:34:01.514Z,18.80
2018-12-29T04:35:01.502Z,17.40
2018-12-29T04:36:01.491Z,16.70
2018-12-29T04:37:01.494Z,17.90
2018-12-29T04:38:01.465Z,14.90
2018-12-29T04:39:01.454Z,14.80
2018-12-29T04:40:01.447Z,20.60
2018-12-29T04:41:01.435Z,17.10
2018-12-29T04:42:01.436Z,18.90
2018-12-29T04:43:01.415Z,18.00
2018-12-29T04:44:01.407Z,18.20
2018-12-29T04:45:01.389Z,17.40
2018-12-29T04:46:05.229Z,20.10
2018-12-29T04:47:01.384Z,21.30
2018-12-29T04:48:01.365Z,17.70
2018-12-29T04:49:01.348Z,16.10
2018-12-29T04:50:01.337Z,19.10
2018-12-29T04:51:01.333Z,18.10
2018-12-29T04:52:01.340Z,16.20
2018-12-29T04:53:01.310Z,17.70
2018-12-29T04:54:01.295Z,16.60
2018-12-29T04:55:01.284Z,18.20
2018-12-29T04:56:01.272Z,19.80
2018-12-29T04:57:01.293Z,18.10
2018-12-29T04:58:01.254Z,18.20
2018-12-29T04:59:01.243Z,19.20
2018-12-29T05:00:01.237Z,17.60
2018-12-29T05:01:01.219Z,17.00
2018-12-29T05:02:01.210Z,21.50
2018-12-29T05:03:01.210Z,20.00
2018-12-29T05:04:01.187Z,15.70
2018-12-29T05:05:01.179Z,19.10
2018-12-29T05:06:01.223Z,18.80
2018-12-29T05:07:01.155Z,15.90
2018-12-29T05:08:01.162Z,17.00
2018-12-29T05:09:01.133Z,16.90
2018-12-29T05:10:01.122Z,18.90
2018-12-29T05:11:01.114Z,17.20
2018-12-29T05:12:01.105Z,19.00
2018-12-29T05:13:01.109Z,18.50
2018-12-29T05:14:01.085Z,18.30
2018-12-29T05:15:01.068Z,16.90
2018-12-29T05:16:01.063Z,18.80
2018-12-29T05:17:01.056Z,18.60
2018-12-29T05:18:01.056Z,19.90
2018-12-29T05:19:01.026Z,21.30
2018-12-29T05:20:01.017Z,17.90
2018-12-29T05:21:01.003Z,17.30
2018-12-29T05:22:01.002Z,19.30
2018-12-29T05:23:00.999Z,16.30
2018-12-29T05:24:00.972Z,15.80
2018-12-29T05:25:00.962Z,15.90
2018-12-29T05:26:00.954Z,18.80
2018-12-29T05:27:00.956Z,19.00
2018-12-29T05:28:00.945Z,19.50
2018-12-29T05:29:00.921Z,15.80
2018-12-29T05:30:00.907Z,15.50
2018-12-29T05:31:00.897Z,16.30
2018-12-29T05:32:00.888Z,19.60
2018-12-29T05:33:00.886Z,16.60
2018-12-29T05:34:00.866Z,19.20
2018-12-29T05:35:00.854Z,18.30
2018-12-29T05:36:00.844Z,18.00
2018-12-29T05:37:00.833Z,17.30
2018-12-29T05:38:00.834Z,17.90
2018-12-29T05:39:00.816Z,20.80
2018-12-29T05:40:00.803Z,17.00
2018-12-29T05:41:00.797Z,16.80
2018-12-29T05:42:00.779Z,18.40
2018-12-29T05:43:00.770Z,18.30
2018-12-29T05:44:00.772Z,15.20
2018-12-29T05:45:00.748Z,17.80
2018-12-29T05:46:00.743Z,19.30
2018-12-29T05:47:00.808Z,21.00
2018-12-29T05:48:00.715Z,17.20
2018-12-29T05:49:00.719Z,19.30
2018-12-29T05:50:00.693Z,18.70
2018-12-29T05:51:00.707Z,16.10
2018-12-29T05:52:00.675Z,16.20
2018-12-29T05:53:00.665Z,17.20
2018-12-29T05:54:00.674Z,18.00
2018-12-29T05:55:00.642Z,18.40
2018-12-29T05:56:00.634Z,18.40
2018-12-29T05:57:00.620Z,16.90
2018-12-29T05:58:00.610Z,18.70
2018-12-29T05:59:00.619Z,15.50
2018-12-29T06:00:00.585Z,16.20
2018-12-29T06:01:00.576Z,15.40
2018-12-29T06:02:00.567Z,16.50
2018-12-29T06:03:00.555Z,16.80
2018-12-29T06:04:00.595Z,21.60
2018-12-29T06:05:00.535Z,16.20
2018-12-29T06:06:00.522Z,18.80
2018-12-29T06:07:00.510Z,18.00
2018-12-29T06:08:00.514Z,20.70
2018-12-29T06:09:00.557Z,18.80
2018-12-29T06:10:00.485Z,18.10
2018-12-29T06:11:00.472Z,20.30
2018-12-29T06:12:00.466Z,17.30
2018-12-29T06:13:00.450Z,19.40
2018-12-29T06:14:00.439Z,18.80
2018-12-29T06:15:00.442Z,19.10
2018-12-29T06:16:00.425Z,17.40
2018-12-29T06:17:00.406Z,16.80
2018-12-29T06:18:00.394Z,19.20
2018-12-29T06:19:00.384Z,15.20
2018-12-29T06:20:00.384Z,18.10
2018-12-29T06:21:00.430Z,18.80
2018-12-29T06:22:00.362Z,20.00
2018-12-29T06:23:00.346Z,15.20
2018-12-29T06:24:00.326Z,17.40
2018-12-29T06:25:00.335Z,16.60
2018-12-29T06:26:00.311Z,20.30
2018-12-29T06:27:00.294Z,19.70
2018-12-29T06:28:00.288Z,17.50
2018-12-29T06:29:00.282Z,17.90
2018-12-29T06:30:00.320Z,19.70
2018-12-29T06:31:00.255Z,17.10
2018-12-29T06:32:00.252Z,17.30
2018-12-29T06:33:00.234Z,17.20
2018-12-29T06:34:00.231Z,16.10
2018-12-29T06:35:00.264Z,22.90
2018-12-29T06:36:00.208Z,20.50
2018-12-29T06:37:00.185Z,16.40
2018-12-29T06:38:00.180Z,19.30
2018-12-29T06:39:00.168Z,20.00
2018-12-29T06:40:00.178Z,20.00
2018-12-29T06:41:00.154Z,18.50
2018-12-29T06:42:00.133Z,17.70
2018-12-29T06:43:00.124Z,23.30
2018-12-29T06:44:00.112Z,17.50
2018-12-29T06:45:00.165Z,20.40
2018-12-29T06:46:00.103Z,21.60
2018-12-29T06:47:00.078Z,19.50
2018-12-29T06:48:00.066Z,18.50
2018-12-29T06:49:00.056Z,20.50
2018-12-29T06:50:00.048Z,19.40
2018-12-29T06:51:00.048Z,17.50
2018-12-29T06:52:00.029Z,17.80
2018-12-29T06:53:00.016Z,19.40
2018-12-29T06:54:00.005Z,18.10
2018-12-29T06:54:59.995Z,15.90
2018-12-29T06:56:00.030Z,18.20
2018-12-29T06:57:00.013Z,20.00
2018-12-29T06:57:59.958Z,16.80
2018-12-29T06:58:59.951Z,19.80
2018-12-29T07:00:00.043Z,19.70
2018-12-29T07:01:00.266Z,20.50
2018-12-29T07:02:00.055Z,20.60
2018-12-29T07:02:59.943Z,20.20
2018-12-29T07:03:59.905Z,22.40
2018-12-29T07:04:59.887Z,23.10
2018-12-29T07:05:59.873Z,19.80
2018-12-29T07:06:59.891Z,22.00
2018-12-29T07:07:59.850Z,23.80
2018-12-29T07:08:59.891Z,21.60
2018-12-29T07:09:59.834Z,18.00
2018-12-29T07:10:59.818Z,18.70
2018-12-29T07:11:59.825Z,19.10
2018-12-29T07:12:59.797Z,18.60
2018-12-29T07:13:59.818Z,21.60
2018-12-29T07:14:59.795Z,19.70
2018-12-29T07:15:59.770Z,19.40
2018-12-29T07:16:59.773Z,19.40
2018-12-29T07:17:59.749Z,18.30
2018-12-29T07:18:59.732Z,20.30
2018-12-29T07:19:59.724Z,23.80
2018-12-29T07:20:59.712Z,16.30
2018-12-29T07:21:59.714Z,16.30
2018-12-29T07:22:59.689Z,18.20
2018-12-29T07:23:59.682Z,18.90
2018-12-29T07:24:59.670Z,17.10
2018-12-29T07:25:59.664Z,16.70
2018-12-29T07:26:59.660Z,18.90
2018-12-29T07:27:59.634Z,19.70
2018-12-29T07:28:59.626Z,18.00
2018-12-29T07:29:59.618Z,21.50
2018-12-29T07:30:59.605Z,19.70
2018-12-29T07:31:59.604Z,21.00
2018-12-29T07:32:59.586Z,18.40
2018-12-29T07:33:59.571Z,20.60
2018-12-29T07:34:59.560Z,25.20
2018-12-29T07:35:59.559Z,21.80
2018-12-29T07:36:59.552Z,20.60
2018-12-29T07:37:59.528Z,22.30
2018-12-29T07:38:59.520Z,21.90
2018-12-29T07:39:59.510Z,18.90
2018-12-29T07:40:59.497Z,16.30
2018-12-29T07:41:59.527Z,21.30
2018-12-29T07:42:59.472Z,20.90
2018-12-29T07:43:59.497Z,19.30
2018-12-29T07:44:59.455Z,19.70
2018-12-29T07:45:59.443Z,23.60
2018-12-29T07:46:59.436Z,20.60
2018-12-29T07:47:59.437Z,18.90
2018-12-29T07:48:59.410Z,22.90
2018-12-29T07:49:59.414Z,24.10
2018-12-29T07:50:59.389Z,22.30
2018-12-29T07:51:59.378Z,18.00
2018-12-29T07:52:59.382Z,20.70
2018-12-29T07:53:59.361Z,20.50
2018-12-29T07:54:59.348Z,19.40
2018-12-29T07:55:59.334Z,25.50
2018-12-29T07:56:59.324Z,20.70
2018-12-29T07:57:59.608Z,21.50
2018-12-29T07:58:59.309Z,22.80
2018-12-29T07:59:59.297Z,20.90
2018-12-29T08:00:59.289Z,21.30
2018-12-29T08:01:59.292Z,21.40
2018-12-29T08:02:59.277Z,23.20
2018-12-29T08:03:59.250Z,22.50
2018-12-29T08:04:59.243Z,20.50
2018-12-29T08:05:59.228Z,24.00
2018-12-29T08:06:59.219Z,21.10
2018-12-29T08:07:59.221Z,20.30
2018-12-29T08:08:59.203Z,18.50
2018-12-29T08:09:59.190Z,22.50
2018-12-29T08:10:59.177Z,19.60
2018-12-29T08:11:59.169Z,17.80
2018-12-29T08:12:59.169Z,20.90
2018-12-29T08:13:59.144Z,20.80
2018-12-29T08:14:59.132Z,22.20
2018-12-29T08:15:59.123Z,19.70
2018-12-29T08:16:59.109Z,22.40
2018-12-29T08:17:59.218Z,19.70
2018-12-29T08:18:59.087Z,19.30
2018-12-29T08:19:59.076Z,18.90
2018-12-29T08:20:59.063Z,18.10
2018-12-29T08:21:59.057Z,18.30
2018-12-29T08:22:59.043Z,18.10
2018-12-29T08:23:59.048Z,22.10
2018-12-29T08:24:59.043Z,19.90
2018-12-29T08:25:59.014Z,23.30
2018-12-29T08:26:59.003Z,22.40
2018-12-29T08:27:58.996Z,18.80
2018-12-29T08:28:59.003Z,20.30
2018-12-29T08:29:58.973Z,19.00
2018-12-29T08:30:58.962Z,20.70
2018-12-29T08:31:58.945Z,18.90
2018-12-29T08:32:58.937Z,19.20
2018-12-29T08:33:58.956Z,21.90
2018-12-29T08:34:58.957Z,19.20
2018-12-29T08:35:58.906Z,16.90
2018-12-29T08:36:58.894Z,19.90
2018-12-29T08:37:58.883Z,19.10
2018-12-29T08:38:58.889Z,21.40
2018-12-29T08:39:58.876Z,16.10
2018-12-29T08:40:58.852Z,17.00
2018-12-29T08:41:58.838Z,20.50
2018-12-29T08:42:58.833Z,19.20
2018-12-29T08:43:58.830Z,20.00
2018-12-29T08:44:58.851Z,20.10
2018-12-29T08:45:58.829Z,18.50
2018-12-29T08:47:04.511Z,20.40
2018-12-29T08:47:58.789Z,21.20
2018-12-29T08:48:58.772Z,21.30
2018-12-29T08:49:58.767Z,16.70
2018-12-29T08:50:58.741Z,19.30
2018-12-29T08:51:58.730Z,17.80
2018-12-29T08:52:58.737Z,19.00
2018-12-29T08:53:58.711Z,19.20
2018-12-29T08:54:58.713Z,19.60
2018-12-29T08:55:58.690Z,16.80
2018-12-29T08:56:58.678Z,21.00
2018-12-29T08:57:58.669Z,17.20
2018-12-29T08:58:58.657Z,16.50
2018-12-29T08:59:58.655Z,20.20
2018-12-29T09:00:58.637Z,16.60
2018-12-29T09:01:58.626Z,19.90
2018-12-29T09:02:58.613Z,17.40
2018-12-29T09:03:58.602Z,19.40
2018-12-29T09:04:58.602Z,20.70
2018-12-29T09:05:58.585Z,19.90
2018-12-29T09:06:58.571Z,18.70
2018-12-29T09:07:58.562Z,20.40
2018-12-29T09:08:58.561Z,17.70
2018-12-29T09:09:58.570Z,22.60
2018-12-29T09:10:58.527Z,18.90
2018-12-29T09:11:58.516Z,20.30
2018-12-29T09:12:58.507Z,19.20
2018-12-29T09:13:58.494Z,20.60
2018-12-29T09:14:58.484Z,19.00
2018-12-29T09:15:58.505Z,18.70
2018-12-29T09:16:58.482Z,15.20
2018-12-29T09:17:58.452Z,20.30
2018-12-29T09:18:58.443Z,14.40
2018-12-29T09:19:58.427Z,20.10
2018-12-29T09:20:58.432Z,18.90
2018-12-29T09:21:58.408Z,17.70
2018-12-29T09:22:58.396Z,15.60
2018-12-29T09:23:58.389Z,18.20
2018-12-29T09:24:58.394Z,15.10
2018-12-29T09:25:58.389Z,18.80
2018-12-29T09:26:58.358Z,15.30
2018-12-29T09:27:58.360Z,15.00
2018-12-29T09:28:58.342Z,15.40
2018-12-29T09:29:58.396Z,15.40
2018-12-29T09:30:58.331Z,17.20
2018-12-29T09:31:58.308Z,15.10
2018-12-29T09:32:58.292Z,15.80
2018-12-29T09:33:58.315Z,14.60
2018-12-29T09:34:58.274Z,14.10
2018-12-29T09:35:58.277Z,13.40
2018-12-29T09:36:58.256Z,14.80
2018-12-29T09:37:58.278Z,13.30
2018-12-29T09:38:59.174Z,14.70
2018-12-29T09:39:58.244Z,14.40
2018-12-29T09:40:59.064Z,16.30
2018-12-29T09:41:58.203Z,15.70
2018-12-29T09:42:58.234Z,12.40
2018-12-29T09:43:59.064Z,17.10
2018-12-29T09:44:58.173Z,15.90
2018-12-29T09:45:58.162Z,13.20
2018-12-29T09:46:58.164Z,14.70
2018-12-29T09:47:58.179Z,13.20
2018-12-29T09:48:58.213Z,11.30
2018-12-29T09:49:58.147Z,16.80
2018-12-29T09:50:58.102Z,16.50
2018-12-29T09:51:58.159Z,14.20
2018-12-29T09:52:58.089Z,13.60
2018-12-29T09:53:58.072Z,12.90
2018-12-29T09:54:58.118Z,11.90
2018-12-29T09:55:58.046Z,15.10
2018-12-29T09:56:58.077Z,14.80
2018-12-29T09:57:58.036Z,12.00
2018-12-29T09:58:58.028Z,12.70
2018-12-29T09:59:58.011Z,15.40
2018-12-29T10:00:57.991Z,16.30
2018-12-29T10:01:58.002Z,13.80
2018-12-29T10:02:57.976Z,12.10
2018-12-29T10:03:57.962Z,12.50
2018-12-29T10:04:57.958Z,11.40
2018-12-29T10:05:57.951Z,15.40
2018-12-29T10:06:57.944Z,14.90
2018-12-29T10:07:57.918Z,12.40
2018-12-29T10:08:57.912Z,16.10
2018-12-29T10:09:57.898Z,16.30
2018-12-29T10:10:57.885Z,17.80
2018-12-29T10:11:57.890Z,14.70
2018-12-29T10:12:57.889Z,14.00
2018-12-29T10:13:57.850Z,14.40
2018-12-29T10:14:57.841Z,18.70
2018-12-29T10:15:57.828Z,13.90
2018-12-29T10:16:57.814Z,15.00
2018-12-29T10:17:57.814Z,16.70
2018-12-29T10:18:57.792Z,18.00
2018-12-29T10:19:57.787Z,16.80
2018-12-29T10:20:57.772Z,17.30
2018-12-29T10:21:57.762Z,15.30
2018-12-29T10:22:57.763Z,16.80
2018-12-29T10:23:57.744Z,15.30
2018-12-29T10:24:57.732Z,19.90
2018-12-29T10:25:57.719Z,17.70
2018-12-29T10:26:57.709Z,17.00
2018-12-29T10:27:57.707Z,15.10
2018-12-29T10:28:57.687Z,15.10
2018-12-29T10:29:57.684Z,17.60
2018-12-29T10:30:57.666Z,14.90
2018-12-29T10:31:57.657Z,17.60
2018-12-29T10:32:57.657Z,16.90
2018-12-29T10:33:57.647Z,16.60
2018-12-29T10:34:57.621Z,17.30
2018-12-29T10:35:57.611Z,14.60
2018-12-29T10:36:57.602Z,17.50
2018-12-29T10:37:57.601Z,18.30
2018-12-29T10:39:06.619Z,15.00
2018-12-29T10:39:57.582Z,16.70
2018-12-29T10:40:57.556Z,18.30
2018-12-29T10:41:57.573Z,15.40
2018-12-29T10:42:57.588Z,16.60
2018-12-29T10:43:57.529Z,15.90
2018-12-29T10:44:57.513Z,16.10
2018-12-29T10:45:57.503Z,14.30
2018-12-29T10:46:57.493Z,17.80
2018-12-29T10:48:06.143Z,14.00
2018-12-29T10:48:57.469Z,19.70
2018-12-29T10:49:57.460Z,14.30
2018-12-29T10:50:57.454Z,17.40
2018-12-29T10:51:57.439Z,16.50
2018-12-29T10:52:57.458Z,19.80
2018-12-29T10:53:57.427Z,13.20
2018-12-29T10:54:57.405Z,17.40
2018-12-29T10:55:57.393Z,16.10
2018-12-29T10:56:57.385Z,18.30
2018-12-29T10:57:57.374Z,20.10
2018-12-29T10:58:57.372Z,13.70
2018-12-29T10:59:57.351Z,13.70
2018-12-29T11:00:57.338Z,16.60
2018-12-29T11:01:57.331Z,15.70
2018-12-29T11:02:57.320Z,16.40
2018-12-29T11:03:57.321Z,17.20
2018-12-29T11:04:57.296Z,16.20
2018-12-29T11:05:57.287Z,14.40
2018-12-29T11:06:57.278Z,16.70
2018-12-29T11:07:57.269Z,13.30
2018-12-29T11:08:57.273Z,14.90
2018-12-29T11:09:57.245Z,12.90
2018-12-29T11:10:57.233Z,19.00
2018-12-29T11:11:57.222Z,17.50
2018-12-29T11:12:57.218Z,17.00
2018-12-29T11:13:57.216Z,16.00
2018-12-29T11:14:57.192Z,17.30
2018-12-29T11:15:57.253Z,16.90
2018-12-29T11:16:57.172Z,16.10
2018-12-29T11:17:57.160Z,15.80
2018-12-29T11:18:57.181Z,15.50
2018-12-29T11:19:57.147Z,15.10
2018-12-29T11:20:57.127Z,16.40
2018-12-29T11:21:57.115Z,14.00
2018-12-29T11:22:57.105Z,14.30
2018-12-29T11:23:57.105Z,14.70
2018-12-29T11:24:57.084Z,17.10
2018-12-29T11:25:57.080Z,13.50
2018-12-29T11:26:57.067Z,12.90
2018-12-29T11:27:57.055Z,17.00
2018-12-29T11:28:57.067Z,17.00
2018-12-29T11:29:57.031Z,14.70
2018-12-29T11:30:57.026Z,17.90
2018-12-29T11:31:57.015Z,17.00
2018-12-29T11:32:56.998Z,14.20
2018-12-29T11:33:56.987Z,13.30
2018-12-29T11:34:56.988Z,17.10
2018-12-29T11:35:56.965Z,14.60
2018-12-29T11:36:56.968Z,15.80
2018-12-29T11:37:56.945Z,17.80
2018-12-29T11:38:56.936Z,18.20
2018-12-29T11:39:56.936Z,14.70
2018-12-29T11:40:56.911Z,14.00
2018-12-29T11:41:56.901Z,16.90
2018-12-29T11:42:56.898Z,16.60
2018-12-29T11:43:56.880Z,18.80
2018-12-29T11:44:56.885Z,11.90
2018-12-29T11:45:56.863Z,19.10
2018-12-29T11:46:56.851Z,13.20
2018-12-29T11:47:56.839Z,14.90
2018-12-29T11:48:56.837Z,15.60
2018-12-29T11:49:56.828Z,14.30
2018-12-29T11:50:56.804Z,14.20
2018-12-29T11:51:56.795Z,15.50
2018-12-29T11:52:56.787Z,14.80
2018-12-29T11:53:56.782Z,16.30
2018-12-29T11:54:56.762Z,18.10
2018-12-29T11:55:57.223Z,16.30
2018-12-29T11:56:56.759Z,25.70
2018-12-29T11:57:56.765Z,15.90
2018-12-29T11:58:56.769Z,15.00
2018-12-29T11:59:56.710Z,15.70
2018-12-29T12:00:56.748Z,13.30
2018-12-29T12:01:56.686Z,19.40
2018-12-29T12:02:56.675Z,16.90
2018-12-29T12:03:56.687Z,16.60
2018-12-29T12:04:56.687Z,16.50
2018-12-29T12:05:56.692Z,15.20
2018-12-29T12:06:56.685Z,15.70
2018-12-29T12:07:56.692Z,19.80
2018-12-29T12:08:56.699Z,15.80
2018-12-29T12:09:57.147Z,17.50
2018-12-29T12:10:57.142Z,13.40
2018-12-29T12:11:56.626Z,17.20
2018-12-29T12:12:56.583Z,16.20
2018-12-29T12:13:56.561Z,16.10
2018-12-29T12:14:56.727Z,17.30
2018-12-29T12:15:56.563Z,16.40
2018-12-29T12:16:56.551Z,16.60
2018-12-29T12:17:57.548Z,15.60
2018-12-29T12:18:56.568Z,16.10
2018-12-29T12:19:57.142Z,16.60
2018-12-29T12:20:56.519Z,15.20
2018-12-29T12:21:56.472Z,16.70
2018-12-29T12:22:56.467Z,17.90
2018-12-29T12:23:56.462Z,18.80
2018-12-29T12:24:56.442Z,15.30
2018-12-29T12:25:56.467Z,16.20
2018-12-29T12:26:56.424Z,18.20
2018-12-29T12:27:56.411Z,16.40
2018-12-29T12:28:56.453Z,16.50
2018-12-29T12:29:56.384Z,14.40
2018-12-29T12:30:56.375Z,15.40
2018-12-29T12:31:56.396Z,17.00
2018-12-29T12:32:56.359Z,15.00
2018-12-29T12:33:56.356Z,16.20
2018-12-29T12:34:56.365Z,16.30
2018-12-29T12:35:56.324Z,14.40
2018-12-29T12:36:56.407Z,15.70
2018-12-29T12:37:56.301Z,18.10
2018-12-29T12:38:56.291Z,17.40
2018-12-29T12:39:56.279Z,15.30
2018-12-29T12:40:56.274Z,17.70
2018-12-29T12:41:56.269Z,16.30
2018-12-29T12:42:56.308Z,14.20
2018-12-29T12:43:56.236Z,14.00
2018-12-29T12:44:56.240Z,15.60
2018-12-29T12:45:56.216Z,13.10
2018-12-29T12:46:56.223Z,18.00
2018-12-29T12:47:56.194Z,17.90
2018-12-29T12:48:56.188Z,14.60
2018-12-29T12:49:56.171Z,15.90
2018-12-29T12:50:56.173Z,15.40
2018-12-29T12:51:56.166Z,14.10